sensor_id;sensor_type;location;lat;lon;timestamp;temperature;humidity
70851;DHT22;58475;49.662;9.636;2023-12-14T00:00:24;5.78;96.55
70851;DHT22;58475;49.662;9.636;2023-12-14T00:02:49;5.71;96.79
70851;DHT22;58475;49.662;9.636;2023-12-14T00:05:15;5.89;96.60
70851;DHT22;58475;49.662;9.636;2023-12-14T00:07:40;5.68;96.72
70851;DHT22;58475;49.662;9.636;2023-12-14T00:10:06;5.61;97.14
70851;DHT22;58475;49.662;9.636;2023-12-14T00:12:32;5.76;96.83
70851;DHT22;58475;49.662;9.636;2023-12-14T00:14:57;5.71;96.89
70851;DHT22;58475;49.662;9.636;2023-12-14T00:17:23;5.65;97.07
70851;DHT22;58475;49.662;9.636;2023-12-14T00:19:48;5.59;97.31
70851;DHT22;58475;49.662;9.636;2023-12-14T00:22:14;5.58;97.43
70851;DHT22;58475;49.662;9.636;2023-12-14T00:24:39;5.93;96.44
70851;DHT22;58475;49.662;9.636;2023-12-14T00:27:05;5.98;95.80
70851;DHT22;58475;49.662;9.636;2023-12-14T00:29:30;5.92;95.93
70851;DHT22;58475;49.662;9.636;2023-12-14T00:31:55;5.75;96.58
70851;DHT22;58475;49.662;9.636;2023-12-14T00:34:21;5.65;97.03
70851;DHT22;58475;49.662;9.636;2023-12-14T00:36:46;5.78;96.99
70851;DHT22;58475;49.662;9.636;2023-12-14T00:39:12;5.76;96.93
70851;DHT22;58475;49.662;9.636;2023-12-14T00:41:44;5.68;97.16
70851;DHT22;58475;49.662;9.636;2023-12-14T00:44:09;5.61;97.46
70851;DHT22;58475;49.662;9.636;2023-12-14T00:46:35;5.58;97.60
70851;DHT22;58475;49.662;9.636;2023-12-14T00:49:00;5.71;97.40
70851;DHT22;58475;49.662;9.636;2023-12-14T00:51:27;5.83;97.14
70851;DHT22;58475;49.662;9.636;2023-12-14T00:53:53;5.72;97.00
70851;DHT22;58475;49.662;9.636;2023-12-14T00:56:18;5.69;97.32
70851;DHT22;58475;49.662;9.636;2023-12-14T00:58:44;5.76;96.90
70851;DHT22;58475;49.662;9.636;2023-12-14T01:01:09;5.74;97.01
70851;DHT22;58475;49.662;9.636;2023-12-14T01:03:35;5.75;96.98
70851;DHT22;58475;49.662;9.636;2023-12-14T01:06:00;5.55;97.15
70851;DHT22;58475;49.662;9.636;2023-12-14T01:08:25;5.41;97.62
70851;DHT22;58475;49.662;9.636;2023-12-14T01:10:51;5.35;97.79
70851;DHT22;58475;49.662;9.636;2023-12-14T01:13:16;5.43;97.64
70851;DHT22;58475;49.662;9.636;2023-12-14T01:15:42;5.51;96.89
70851;DHT22;58475;49.662;9.636;2023-12-14T01:18:07;5.43;97.14
70851;DHT22;58475;49.662;9.636;2023-12-14T01:20:33;5.40;97.16
70851;DHT22;58475;49.662;9.636;2023-12-14T01:22:58;5.40;97.11
70851;DHT22;58475;49.662;9.636;2023-12-14T01:25:23;5.41;97.24
70851;DHT22;58475;49.662;9.636;2023-12-14T01:27:49;5.43;97.27
70851;DHT22;58475;49.662;9.636;2023-12-14T01:30:14;5.44;97.33
70851;DHT22;58475;49.662;9.636;2023-12-14T01:32:40;5.37;97.70
70851;DHT22;58475;49.662;9.636;2023-12-14T01:35:05;5.41;97.75
70851;DHT22;58475;49.662;9.636;2023-12-14T01:37:31;5.50;97.70
70851;DHT22;58475;49.662;9.636;2023-12-14T01:39:57;5.56;97.30
70851;DHT22;58475;49.662;9.636;2023-12-14T01:42:22;5.48;97.33
70851;DHT22;58475;49.662;9.636;2023-12-14T01:44:48;5.47;97.02
70851;DHT22;58475;49.662;9.636;2023-12-14T01:47:13;5.35;97.31
70851;DHT22;58475;49.662;9.636;2023-12-14T01:49:39;5.28;97.30
70851;DHT22;58475;49.662;9.636;2023-12-14T01:52:06;5.19;97.16
70851;DHT22;58475;49.662;9.636;2023-12-14T01:54:32;5.19;96.96
70851;DHT22;58475;49.662;9.636;2023-12-14T01:56:58;5.00;96.62
70851;DHT22;58475;49.662;9.636;2023-12-14T01:59:24;4.82;96.80
70851;DHT22;58475;49.662;9.636;2023-12-14T02:01:54;4.77;96.92
70851;DHT22;58475;49.662;9.636;2023-12-14T02:04:23;4.83;96.90
70851;DHT22;58475;49.662;9.636;2023-12-14T02:06:49;4.82;97.23
70851;DHT22;58475;49.662;9.636;2023-12-14T02:09:14;4.82;97.07
70851;DHT22;58475;49.662;9.636;2023-12-14T02:11:40;4.80;97.14
70851;DHT22;58475;49.662;9.636;2023-12-14T02:14:09;4.89;97.22
70851;DHT22;58475;49.662;9.636;2023-12-14T02:16:34;4.83;97.30
70851;DHT22;58475;49.662;9.636;2023-12-14T02:19:00;4.82;97.59
70851;DHT22;58475;49.662;9.636;2023-12-14T02:21:25;4.85;97.70
70851;DHT22;58475;49.662;9.636;2023-12-14T02:23:51;4.96;97.55
70851;DHT22;58475;49.662;9.636;2023-12-14T02:26:16;4.96;97.89
70851;DHT22;58475;49.662;9.636;2023-12-14T02:28:42;5.01;97.83
70851;DHT22;58475;49.662;9.636;2023-12-14T02:31:07;5.23;97.05
70851;DHT22;58475;49.662;9.636;2023-12-14T02:33:33;5.16;96.98
70851;DHT22;58475;49.662;9.636;2023-12-14T02:35:59;5.10;97.10
70851;DHT22;58475;49.662;9.636;2023-12-14T02:38:25;5.14;97.47
70851;DHT22;58475;49.662;9.636;2023-12-14T02:40:50;5.01;97.54
70851;DHT22;58475;49.662;9.636;2023-12-14T02:43:18;4.83;98.26
70851;DHT22;58475;49.662;9.636;2023-12-14T02:45:43;4.82;98.14
70851;DHT22;58475;49.662;9.636;2023-12-14T02:48:09;5.07;97.25
70851;DHT22;58475;49.662;9.636;2023-12-14T02:50:34;4.87;97.30
70851;DHT22;58475;49.662;9.636;2023-12-14T02:52:59;5.01;97.30
70851;DHT22;58475;49.662;9.636;2023-12-14T02:55:25;4.97;97.14
70851;DHT22;58475;49.662;9.636;2023-12-14T02:57:50;4.94;96.88
70851;DHT22;58475;49.662;9.636;2023-12-14T03:00:16;4.85;97.21
70851;DHT22;58475;49.662;9.636;2023-12-14T03:02:41;4.82;97.33
70851;DHT22;58475;49.662;9.636;2023-12-14T03:05:07;4.85;97.03
70851;DHT22;58475;49.662;9.636;2023-12-14T03:07:33;4.82;96.86
70851;DHT22;58475;49.662;9.636;2023-12-14T03:09:58;4.72;97.32
70851;DHT22;58475;49.662;9.636;2023-12-14T03:12:23;4.79;97.07
70851;DHT22;58475;49.662;9.636;2023-12-14T03:14:49;4.62;97.42
70851;DHT22;58475;49.662;9.636;2023-12-14T03:17:14;4.56;97.69
70851;DHT22;58475;49.662;9.636;2023-12-14T03:19:42;4.86;97.08
70851;DHT22;58475;49.662;9.636;2023-12-14T03:22:08;4.92;96.20
70851;DHT22;58475;49.662;9.636;2023-12-14T03:24:34;4.71;96.46
70851;DHT22;58475;49.662;9.636;2023-12-14T03:26:59;4.66;97.00
70851;DHT22;58475;49.662;9.636;2023-12-14T03:29:26;4.62;97.14
70851;DHT22;58475;49.662;9.636;2023-12-14T03:31:52;4.62;97.18
70851;DHT22;58475;49.662;9.636;2023-12-14T03:34:17;4.66;97.84
70851;DHT22;58475;49.662;9.636;2023-12-14T03:36:43;4.59;97.69
70851;DHT22;58475;49.662;9.636;2023-12-14T03:39:08;4.71;98.02
70851;DHT22;58475;49.662;9.636;2023-12-14T03:41:33;4.83;97.31
70851;DHT22;58475;49.662;9.636;2023-12-14T03:43:59;4.69;97.73
70851;DHT22;58475;49.662;9.636;2023-12-14T03:46:24;4.80;97.67
70851;DHT22;58475;49.662;9.636;2023-12-14T03:48:50;4.75;97.76
70851;DHT22;58475;49.662;9.636;2023-12-14T03:51:19;4.89;97.56
70851;DHT22;58475;49.662;9.636;2023-12-14T03:53:45;4.85;97.41
70851;DHT22;58475;49.662;9.636;2023-12-14T03:56:10;4.71;97.97
70851;DHT22;58475;49.662;9.636;2023-12-14T03:58:36;4.71;97.81
70851;DHT22;58475;49.662;9.636;2023-12-14T04:01:01;4.83;97.80
70851;DHT22;58475;49.662;9.636;2023-12-14T04:03:27;4.83;97.71
70851;DHT22;58475;49.662;9.636;2023-12-14T04:05:52;4.69;97.98
70851;DHT22;58475;49.662;9.636;2023-12-14T04:08:18;4.85;97.60
70851;DHT22;58475;49.662;9.636;2023-12-14T04:10:43;4.62;97.99
70851;DHT22;58475;49.662;9.636;2023-12-14T04:13:09;4.77;97.88
70851;DHT22;58475;49.662;9.636;2023-12-14T04:15:34;4.77;97.50
70851;DHT22;58475;49.662;9.636;2023-12-14T04:17:59;4.72;97.48
70851;DHT22;58475;49.662;9.636;2023-12-14T04:20:25;4.55;98.02
70851;DHT22;58475;49.662;9.636;2023-12-14T04:22:50;4.75;97.80
70851;DHT22;58475;49.662;9.636;2023-12-14T04:25:16;4.73;97.20
70851;DHT22;58475;49.662;9.636;2023-12-14T04:27:41;4.72;97.43
70851;DHT22;58475;49.662;9.636;2023-12-14T04:30:07;4.97;96.92
70851;DHT22;58475;49.662;9.636;2023-12-14T04:32:38;4.75;97.10
70851;DHT22;58475;49.662;9.636;2023-12-14T04:35:05;4.77;97.25
70851;DHT22;58475;49.662;9.636;2023-12-14T04:37:30;4.58;97.65
70851;DHT22;58475;49.662;9.636;2023-12-14T04:39:57;4.82;97.25
70851;DHT22;58475;49.662;9.636;2023-12-14T04:42:22;4.73;97.54
70851;DHT22;58475;49.662;9.636;2023-12-14T04:44:48;4.96;96.69
70851;DHT22;58475;49.662;9.636;2023-12-14T04:47:13;4.79;97.16
70851;DHT22;58475;49.662;9.636;2023-12-14T04:49:39;4.66;97.42
70851;DHT22;58475;49.662;9.636;2023-12-14T04:52:04;4.66;97.69
70851;DHT22;58475;49.662;9.636;2023-12-14T04:54:31;4.93;97.34
70851;DHT22;58475;49.662;9.636;2023-12-14T04:56:56;4.79;97.22
70851;DHT22;58475;49.662;9.636;2023-12-14T04:59:22;4.77;97.20
70851;DHT22;58475;49.662;9.636;2023-12-14T05:01:47;4.58;97.76
70851;DHT22;58475;49.662;9.636;2023-12-14T05:04:12;4.69;97.92
70851;DHT22;58475;49.662;9.636;2023-12-14T05:06:38;4.72;97.45
70851;DHT22;58475;49.662;9.636;2023-12-14T05:09:04;4.89;97.04
70851;DHT22;58475;49.662;9.636;2023-12-14T05:11:31;4.68;97.51
70851;DHT22;58475;49.662;9.636;2023-12-14T05:13:56;4.65;97.77
70851;DHT22;58475;49.662;9.636;2023-12-14T05:16:23;4.69;97.75
70851;DHT22;58475;49.662;9.636;2023-12-14T05:18:55;4.79;97.60
70851;DHT22;58475;49.662;9.636;2023-12-14T05:21:21;4.80;97.61
70851;DHT22;58475;49.662;9.636;2023-12-14T05:23:46;4.83;97.33
70851;DHT22;58475;49.662;9.636;2023-12-14T05:26:11;4.76;97.54
70851;DHT22;58475;49.662;9.636;2023-12-14T05:28:37;4.76;97.64
70851;DHT22;58475;49.662;9.636;2023-12-14T05:31:02;4.76;97.54
70851;DHT22;58475;49.662;9.636;2023-12-14T05:33:29;4.72;97.66
70851;DHT22;58475;49.662;9.636;2023-12-14T05:35:56;4.85;97.63
70851;DHT22;58475;49.662;9.636;2023-12-14T05:38:22;4.97;97.00
70851;DHT22;58475;49.662;9.636;2023-12-14T05:40:47;4.75;97.29
70851;DHT22;58475;49.662;9.636;2023-12-14T05:43:12;4.72;97.73
70851;DHT22;58475;49.662;9.636;2023-12-14T05:45:38;4.80;97.61
70851;DHT22;58475;49.662;9.636;2023-12-14T05:48:04;4.75;97.57
70851;DHT22;58475;49.662;9.636;2023-12-14T05:50:32;4.90;97.20
70851;DHT22;58475;49.662;9.636;2023-12-14T05:52:58;4.75;97.50
70851;DHT22;58475;49.662;9.636;2023-12-14T05:55:23;5.01;97.17
70851;DHT22;58475;49.662;9.636;2023-12-14T05:57:49;5.01;96.77
70851;DHT22;58475;49.662;9.636;2023-12-14T06:00:15;4.82;97.00
70851;DHT22;58475;49.662;9.636;2023-12-14T06:02:41;4.86;97.23
70851;DHT22;58475;49.662;9.636;2023-12-14T06:05:07;4.77;97.35
70851;DHT22;58475;49.662;9.636;2023-12-14T06:07:33;4.87;96.80
70851;DHT22;58475;49.662;9.636;2023-12-14T06:09:58;4.87;97.11
70851;DHT22;58475;49.662;9.636;2023-12-14T06:12:24;4.85;96.97
70851;DHT22;58475;49.662;9.636;2023-12-14T06:14:50;4.86;97.02
70851;DHT22;58475;49.662;9.636;2023-12-14T06:17:16;4.93;96.52
70851;DHT22;58475;49.662;9.636;2023-12-14T06:19:41;4.85;97.03
70851;DHT22;58475;49.662;9.636;2023-12-14T06:22:07;4.82;96.85
70851;DHT22;58475;49.662;9.636;2023-12-14T06:24:32;4.79;96.93
70851;DHT22;58475;49.662;9.636;2023-12-14T06:26:58;4.90;96.86
70851;DHT22;58475;49.662;9.636;2023-12-14T06:29:23;4.87;96.73
70851;DHT22;58475;49.662;9.636;2023-12-14T06:31:49;4.79;96.58
70851;DHT22;58475;49.662;9.636;2023-12-14T06:34:14;4.72;97.08
70851;DHT22;58475;49.662;9.636;2023-12-14T06:36:44;4.40;97.93
70851;DHT22;58475;49.662;9.636;2023-12-14T06:39:10;4.52;97.66
70851;DHT22;58475;49.662;9.636;2023-12-14T06:41:36;4.51;97.72
70851;DHT22;58475;49.662;9.636;2023-12-14T06:44:02;4.68;97.43
70851;DHT22;58475;49.662;9.636;2023-12-14T06:46:28;4.61;97.27
70851;DHT22;58475;49.662;9.636;2023-12-14T06:48:53;4.42;97.61
70851;DHT22;58475;49.662;9.636;2023-12-14T06:51:19;4.56;97.67
70851;DHT22;58475;49.662;9.636;2023-12-14T06:53:45;4.49;97.60
70851;DHT22;58475;49.662;9.636;2023-12-14T06:56:11;4.59;97.34
70851;DHT22;58475;49.662;9.636;2023-12-14T06:58:39;4.55;97.28
70851;DHT22;58475;49.662;9.636;2023-12-14T07:01:04;4.49;97.14
70851;DHT22;58475;49.662;9.636;2023-12-14T07:03:31;4.59;96.43
70851;DHT22;58475;49.662;9.636;2023-12-14T07:05:57;4.31;96.64
70851;DHT22;58475;49.662;9.636;2023-12-14T07:08:23;4.17;97.20
70851;DHT22;58475;49.662;9.636;2023-12-14T07:10:48;4.17;97.09
70851;DHT22;58475;49.662;9.636;2023-12-14T07:13:14;4.01;97.42
70851;DHT22;58475;49.662;9.636;2023-12-14T07:15:39;3.90;97.49
70851;DHT22;58475;49.662;9.636;2023-12-14T07:18:05;4.05;97.38
70851;DHT22;58475;49.662;9.636;2023-12-14T07:20:30;4.14;97.00
70851;DHT22;58475;49.662;9.636;2023-12-14T07:22:56;4.11;97.27
70851;DHT22;58475;49.662;9.636;2023-12-14T07:25:21;4.14;97.21
70851;DHT22;58475;49.662;9.636;2023-12-14T07:27:47;4.17;97.25
70851;DHT22;58475;49.662;9.636;2023-12-14T07:30:13;4.24;97.47
70851;DHT22;58475;49.662;9.636;2023-12-14T07:32:39;4.35;96.89
70851;DHT22;58475;49.662;9.636;2023-12-14T07:35:05;4.37;97.40
70851;DHT22;58475;49.662;9.636;2023-12-14T07:37:30;4.41;97.41
70851;DHT22;58475;49.662;9.636;2023-12-14T07:39:56;4.56;97.26
70851;DHT22;58475;49.662;9.636;2023-12-14T07:42:23;4.58;97.46
70851;DHT22;58475;49.662;9.636;2023-12-14T07:44:48;4.65;97.47
70851;DHT22;58475;49.662;9.636;2023-12-14T07:47:14;4.71;96.97
70851;DHT22;58475;49.662;9.636;2023-12-14T07:49:39;4.65;96.98
70851;DHT22;58475;49.662;9.636;2023-12-14T07:52:05;4.51;97.36
70851;DHT22;58475;49.662;9.636;2023-12-14T07:54:30;4.72;97.22
70851;DHT22;58475;49.662;9.636;2023-12-14T07:56:56;4.80;97.06
70851;DHT22;58475;49.662;9.636;2023-12-14T07:59:22;4.75;97.15
70851;DHT22;58475;49.662;9.636;2023-12-14T08:01:48;4.85;97.27
70851;DHT22;58475;49.662;9.636;2023-12-14T08:04:14;5.01;96.43
70851;DHT22;58475;49.662;9.636;2023-12-14T08:06:39;4.93;96.52
70851;DHT22;58475;49.662;9.636;2023-12-14T08:09:05;4.80;96.92
70851;DHT22;58475;49.662;9.636;2023-12-14T08:11:34;5.03;96.70
70851;DHT22;58475;49.662;9.636;2023-12-14T08:13:59;5.12;96.30
70851;DHT22;58475;49.662;9.636;2023-12-14T08:16:25;5.12;96.14
70851;DHT22;58475;49.662;9.636;2023-12-14T08:18:51;4.97;96.63
70851;DHT22;58475;49.662;9.636;2023-12-14T08:21:17;5.06;96.80
70851;DHT22;58475;49.662;9.636;2023-12-14T08:23:43;5.17;96.76
70851;DHT22;58475;49.662;9.636;2023-12-14T08:26:09;5.26;96.58
70851;DHT22;58475;49.662;9.636;2023-12-14T08:28:36;5.28;96.49
70851;DHT22;58475;49.662;9.636;2023-12-14T08:31:02;5.31;96.47
70851;DHT22;58475;49.662;9.636;2023-12-14T08:33:29;5.31;96.38
70851;DHT22;58475;49.662;9.636;2023-12-14T08:35:55;5.20;96.74
70851;DHT22;58475;49.662;9.636;2023-12-14T08:38:21;5.27;96.85
70851;DHT22;58475;49.662;9.636;2023-12-14T08:40:46;5.35;96.76
70851;DHT22;58475;49.662;9.636;2023-12-14T08:43:12;5.52;96.61
70851;DHT22;58475;49.662;9.636;2023-12-14T08:45:37;5.59;96.19
70851;DHT22;58475;49.662;9.636;2023-12-14T08:48:03;5.65;96.45
70851;DHT22;58475;49.662;9.636;2023-12-14T08:50:29;5.75;96.25
70851;DHT22;58475;49.662;9.636;2023-12-14T08:52:54;5.83;96.26
70851;DHT22;58475;49.662;9.636;2023-12-14T08:55:20;5.83;96.07
70851;DHT22;58475;49.662;9.636;2023-12-14T08:57:45;5.83;96.13
70851;DHT22;58475;49.662;9.636;2023-12-14T09:00:11;5.86;96.17
70851;DHT22;58475;49.662;9.636;2023-12-14T09:02:37;5.95;95.41
70851;DHT22;58475;49.662;9.636;2023-12-14T09:05:03;5.78;95.83
70851;DHT22;58475;49.662;9.636;2023-12-14T09:07:30;5.79;96.13
70851;DHT22;58475;49.662;9.636;2023-12-14T09:09:55;5.93;96.07
70851;DHT22;58475;49.662;9.636;2023-12-14T09:12:21;6.02;95.57
70851;DHT22;58475;49.662;9.636;2023-12-14T09:14:47;5.95;95.94
70851;DHT22;58475;49.662;9.636;2023-12-14T09:17:12;6.12;96.46
70851;DHT22;58475;49.662;9.636;2023-12-14T09:19:37;6.38;95.53
70851;DHT22;58475;49.662;9.636;2023-12-14T09:22:03;6.43;95.60
70851;DHT22;58475;49.662;9.636;2023-12-14T09:24:28;6.33;95.45
70851;DHT22;58475;49.662;9.636;2023-12-14T09:26:54;6.23;96.09
70851;DHT22;58475;49.662;9.636;2023-12-14T09:29:20;6.20;96.39
70851;DHT22;58475;49.662;9.636;2023-12-14T09:31:46;6.29;96.04
70851;DHT22;58475;49.662;9.636;2023-12-14T09:34:12;6.20;96.37
70851;DHT22;58475;49.662;9.636;2023-12-14T09:36:38;6.30;96.37
70851;DHT22;58475;49.662;9.636;2023-12-14T09:39:03;6.50;95.96
70851;DHT22;58475;49.662;9.636;2023-12-14T09:41:36;6.63;95.48
70851;DHT22;58475;49.662;9.636;2023-12-14T09:44:03;6.45;95.59
70851;DHT22;58475;49.662;9.636;2023-12-14T09:46:28;6.50;96.02
70851;DHT22;58475;49.662;9.636;2023-12-14T09:48:55;6.65;95.52
70851;DHT22;58475;49.662;9.636;2023-12-14T09:51:20;6.60;95.28
70851;DHT22;58475;49.662;9.636;2023-12-14T09:53:49;6.58;95.79
70851;DHT22;58475;49.662;9.636;2023-12-14T09:56:14;6.63;95.46
70851;DHT22;58475;49.662;9.636;2023-12-14T09:58:39;6.63;95.63
70851;DHT22;58475;49.662;9.636;2023-12-14T10:01:25;6.82;94.77
70851;DHT22;58475;49.662;9.636;2023-12-14T10:04:12;6.73;95.20
70851;DHT22;58475;49.662;9.636;2023-12-14T10:06:39;6.67;95.82
70851;DHT22;58475;49.662;9.636;2023-12-14T10:09:05;6.73;95.74
70851;DHT22;58475;49.662;9.636;2023-12-14T10:11:41;6.61;96.21
70851;DHT22;58475;49.662;9.636;2023-12-14T10:14:20;6.71;96.38
70851;DHT22;58475;49.662;9.636;2023-12-14T10:16:47;6.88;95.76
70851;DHT22;58475;49.662;9.636;2023-12-14T10:19:12;6.89;96.09
70851;DHT22;58475;49.662;9.636;2023-12-14T10:21:38;6.89;96.26
70851;DHT22;58475;49.662;9.636;2023-12-14T10:24:05;7.03;96.34
70851;DHT22;58475;49.662;9.636;2023-12-14T10:26:31;7.12;96.25
70851;DHT22;58475;49.662;9.636;2023-12-14T10:28:56;7.20;95.58
70851;DHT22;58475;49.662;9.636;2023-12-14T10:31:23;7.08;96.48
70851;DHT22;58475;49.662;9.636;2023-12-14T10:33:49;7.30;96.29
70851;DHT22;58475;49.662;9.636;2023-12-14T10:36:19;7.26;96.50
70851;DHT22;58475;49.662;9.636;2023-12-14T10:38:57;7.36;96.51
70851;DHT22;58475;49.662;9.636;2023-12-14T10:41:24;7.53;96.50
70851;DHT22;58475;49.662;9.636;2023-12-14T10:43:53;7.52;96.20
70851;DHT22;58475;49.662;9.636;2023-12-14T10:46:19;7.77;94.98
70851;DHT22;58475;49.662;9.636;2023-12-14T10:48:47;7.64;95.71
70851;DHT22;58475;49.662;9.636;2023-12-14T10:51:15;7.81;95.74
70851;DHT22;58475;49.662;9.636;2023-12-14T10:53:41;7.80;95.33
70851;DHT22;58475;49.662;9.636;2023-12-14T10:56:12;7.80;95.41
70851;DHT22;58475;49.662;9.636;2023-12-14T10:58:56;7.94;95.28
70851;DHT22;58475;49.662;9.636;2023-12-14T11:01:24;7.80;95.56
70851;DHT22;58475;49.662;9.636;2023-12-14T11:03:53;7.98;94.95
70851;DHT22;58475;49.662;9.636;2023-12-14T11:06:27;7.98;95.34
70851;DHT22;58475;49.662;9.636;2023-12-14T11:08:57;7.98;95.19
70851;DHT22;58475;49.662;9.636;2023-12-14T11:11:28;8.01;95.41
70851;DHT22;58475;49.662;9.636;2023-12-14T11:13:54;8.04;95.33
70851;DHT22;58475;49.662;9.636;2023-12-14T11:16:23;8.16;94.85
70851;DHT22;58475;49.662;9.636;2023-12-14T11:24:20;7.94;95.30
70851;DHT22;58475;49.662;9.636;2023-12-14T11:26:49;8.04;95.64
70851;DHT22;58475;49.662;9.636;2023-12-14T11:29:15;8.11;95.43
70851;DHT22;58475;49.662;9.636;2023-12-14T11:31:40;8.18;94.86
70851;DHT22;58475;49.662;9.636;2023-12-14T11:34:06;8.25;95.05
70851;DHT22;58475;49.662;9.636;2023-12-14T11:36:33;8.25;94.63
70851;DHT22;58475;49.662;9.636;2023-12-14T11:38:58;8.18;95.20
70851;DHT22;58475;49.662;9.636;2023-12-14T11:41:24;8.11;95.40
70851;DHT22;58475;49.662;9.636;2023-12-14T11:43:51;8.28;94.97
70851;DHT22;58475;49.662;9.636;2023-12-14T11:46:17;8.24;94.56
70851;DHT22;58475;49.662;9.636;2023-12-14T11:48:46;8.15;95.19
70851;DHT22;58475;49.662;9.636;2023-12-14T11:51:12;8.14;95.14
70851;DHT22;58475;49.662;9.636;2023-12-14T11:53:38;8.14;95.10
70851;DHT22;58475;49.662;9.636;2023-12-14T11:56:05;7.99;95.62
70851;DHT22;58475;49.662;9.636;2023-12-14T11:58:31;7.99;95.88
70851;DHT22;58475;49.662;9.636;2023-12-14T12:01:19;7.95;96.33
70851;DHT22;58475;49.662;9.636;2023-12-14T12:03:50;7.95;95.46
70851;DHT22;58475;49.662;9.636;2023-12-14T12:06:23;7.94;94.92
70851;DHT22;58475;49.662;9.636;2023-12-14T12:08:49;8.02;94.97
70851;DHT22;58475;49.662;9.636;2023-12-14T12:11:18;7.99;94.76
70851;DHT22;58475;49.662;9.636;2023-12-14T12:13:44;7.98;94.79
70851;DHT22;58475;49.662;9.636;2023-12-14T12:16:09;7.93;94.94
70851;DHT22;58475;49.662;9.636;2023-12-14T12:18:34;7.85;95.30
70851;DHT22;58475;49.662;9.636;2023-12-14T12:21:00;7.64;96.29
70851;DHT22;58475;49.662;9.636;2023-12-14T12:23:29;7.69;95.66
70851;DHT22;58475;49.662;9.636;2023-12-14T12:25:55;7.78;95.34
70851;DHT22;58475;49.662;9.636;2023-12-14T12:28:21;7.73;95.41
70851;DHT22;58475;49.662;9.636;2023-12-14T12:30:47;7.67;95.85
70851;DHT22;58475;49.662;9.636;2023-12-14T12:33:12;7.50;96.56
70851;DHT22;58475;49.662;9.636;2023-12-14T12:35:38;7.67;96.14
70851;DHT22;58475;49.662;9.636;2023-12-14T12:38:03;7.70;95.53
70851;DHT22;58475;49.662;9.636;2023-12-14T12:40:29;7.87;94.71
70851;DHT22;58475;49.662;9.636;2023-12-14T12:42:56;7.70;95.60
70851;DHT22;58475;49.662;9.636;2023-12-14T12:45:22;7.70;95.48
70851;DHT22;58475;49.662;9.636;2023-12-14T12:47:50;7.62;96.34
70851;DHT22;58475;49.662;9.636;2023-12-14T12:50:15;7.69;95.81
70851;DHT22;58475;49.662;9.636;2023-12-14T12:52:41;7.64;96.03
70851;DHT22;58475;49.662;9.636;2023-12-14T12:55:08;7.70;95.39
70851;DHT22;58475;49.662;9.636;2023-12-14T12:57:35;7.78;95.35
70851;DHT22;58475;49.662;9.636;2023-12-14T13:00:00;7.71;95.58
70851;DHT22;58475;49.662;9.636;2023-12-14T13:02:26;7.74;95.26
70851;DHT22;58475;49.662;9.636;2023-12-14T13:04:51;7.71;95.64
70851;DHT22;58475;49.662;9.636;2023-12-14T13:07:17;7.70;95.34
70851;DHT22;58475;49.662;9.636;2023-12-14T13:09:43;7.75;95.19
70851;DHT22;58475;49.662;9.636;2023-12-14T13:12:09;7.73;95.63
70851;DHT22;58475;49.662;9.636;2023-12-14T13:14:35;7.83;94.53
70851;DHT22;58475;49.662;9.636;2023-12-14T13:17:01;7.83;94.44
70851;DHT22;58475;49.662;9.636;2023-12-14T13:19:26;7.63;94.97
70851;DHT22;58475;49.662;9.636;2023-12-14T13:21:52;7.66;95.06
70851;DHT22;58475;49.662;9.636;2023-12-14T13:24:18;7.83;94.02
70851;DHT22;58475;49.662;9.636;2023-12-14T13:26:43;7.99;93.50
70851;DHT22;58475;49.662;9.636;2023-12-14T13:29:09;7.95;93.74
70851;DHT22;58475;49.662;9.636;2023-12-14T13:31:35;7.69;94.37
70851;DHT22;58475;49.662;9.636;2023-12-14T13:34:01;7.74;94.17
70851;DHT22;58475;49.662;9.636;2023-12-14T13:36:26;7.63;94.04
70851;DHT22;58475;49.662;9.636;2023-12-14T13:38:52;7.71;94.31
70851;DHT22;58475;49.662;9.636;2023-12-14T13:41:17;7.90;92.99
70851;DHT22;58475;49.662;9.636;2023-12-14T13:43:42;7.88;92.64
70851;DHT22;58475;49.662;9.636;2023-12-14T13:46:09;7.73;93.02
70851;DHT22;58475;49.662;9.636;2023-12-14T13:48:34;7.71;93.69
70851;DHT22;58475;49.662;9.636;2023-12-14T13:51:00;7.62;93.76
70851;DHT22;58475;49.662;9.636;2023-12-14T13:53:25;7.69;93.85
70851;DHT22;58475;49.662;9.636;2023-12-14T13:55:51;7.59;94.00
70851;DHT22;58475;49.662;9.636;2023-12-14T13:58:17;7.43;94.76
70851;DHT22;58475;49.662;9.636;2023-12-14T14:00:45;7.36;95.01
70851;DHT22;58475;49.662;9.636;2023-12-14T14:03:12;7.43;95.16
70851;DHT22;58475;49.662;9.636;2023-12-14T14:05:38;7.66;93.84
70851;DHT22;58475;49.662;9.636;2023-12-14T14:08:04;7.67;93.58
70851;DHT22;58475;49.662;9.636;2023-12-14T14:10:30;7.44;94.44
70851;DHT22;58475;49.662;9.636;2023-12-14T14:12:55;7.44;94.50
70851;DHT22;58475;49.662;9.636;2023-12-14T14:15:21;7.44;94.86
70851;DHT22;58475;49.662;9.636;2023-12-14T14:17:47;7.63;93.53
70851;DHT22;58475;49.662;9.636;2023-12-14T14:20:16;7.56;94.30
70851;DHT22;58475;49.662;9.636;2023-12-14T14:22:42;7.47;94.34
70851;DHT22;58475;49.662;9.636;2023-12-14T14:25:07;7.37;94.96
70851;DHT22;58475;49.662;9.636;2023-12-14T14:27:33;7.42;95.50
70851;DHT22;58475;49.662;9.636;2023-12-14T14:29:59;7.42;95.10
70851;DHT22;58475;49.662;9.636;2023-12-14T14:32:25;7.60;94.76
70851;DHT22;58475;49.662;9.636;2023-12-14T14:34:51;7.47;94.20
70851;DHT22;58475;49.662;9.636;2023-12-14T14:37:18;7.50;93.88
70851;DHT22;58475;49.662;9.636;2023-12-14T14:39:43;7.49;94.24
70851;DHT22;58475;49.662;9.636;2023-12-14T14:42:09;7.46;93.71
70851;DHT22;58475;49.662;9.636;2023-12-14T14:44:35;7.44;94.01
70851;DHT22;58475;49.662;9.636;2023-12-14T14:47:01;7.47;93.43
70851;DHT22;58475;49.662;9.636;2023-12-14T14:49:27;7.47;93.59
70851;DHT22;58475;49.662;9.636;2023-12-14T14:51:53;7.40;93.48
70851;DHT22;58475;49.662;9.636;2023-12-14T14:54:18;7.46;92.81
70851;DHT22;58475;49.662;9.636;2023-12-14T14:56:44;7.44;92.91
70851;DHT22;58475;49.662;9.636;2023-12-14T14:59:09;7.44;92.59
70851;DHT22;58475;49.662;9.636;2023-12-14T15:01:37;7.47;92.63
70851;DHT22;58475;49.662;9.636;2023-12-14T15:04:02;7.37;93.32
70851;DHT22;58475;49.662;9.636;2023-12-14T15:06:28;7.34;93.88
70851;DHT22;58475;49.662;9.636;2023-12-14T15:08:54;7.36;93.62
70851;DHT22;58475;49.662;9.636;2023-12-14T15:11:19;7.34;93.78
70851;DHT22;58475;49.662;9.636;2023-12-14T15:13:45;7.20;93.44
70851;DHT22;58475;49.662;9.636;2023-12-14T15:16:10;7.15;94.06
70851;DHT22;58475;49.662;9.636;2023-12-14T15:18:37;7.16;94.41
70851;DHT22;58475;49.662;9.636;2023-12-14T15:21:10;7.40;93.25
70851;DHT22;58475;49.662;9.636;2023-12-14T15:23:35;7.54;92.71
70851;DHT22;58475;49.662;9.636;2023-12-14T15:26:02;7.47;93.04
70851;DHT22;58475;49.662;9.636;2023-12-14T15:28:28;7.36;93.36
70851;DHT22;58475;49.662;9.636;2023-12-14T15:30:53;7.36;93.71
70851;DHT22;58475;49.662;9.636;2023-12-14T15:33:19;7.32;93.47
70851;DHT22;58475;49.662;9.636;2023-12-14T15:35:44;7.37;93.23
70851;DHT22;58475;49.662;9.636;2023-12-14T15:38:10;7.18;94.06
70851;DHT22;58475;49.662;9.636;2023-12-14T15:40:36;7.08;94.60
70851;DHT22;58475;49.662;9.636;2023-12-14T15:43:06;7.15;95.12